Terminal Aerodrome Forecast
Issued by NWS Wilmington, NC

Home | Current Version | Previous Version | Text Only | Print | Product List | Glossary On
Versions: 1 2 3 4 5 6 7 8 9 10 11 12 13 14 15
527
FTUS42 KILM 121134
TAFFLO
TAF
KFLO 121134Z 1212/1312 06009KT P6SM BKN060
     FM121500 06008KT 6SM -FZRAPL SCT010 OVC015
     FM121700 03007KT 4SM -RA BR OVC010
     FM122300 34005KT P6SM OVC025
     FM130400 28004KT P6SM SCT025 BKN250=

USA.gov is the U.S. government's official web portal to all federal, state and local government web resources and services.